createdAt,value
2023-01-26T00:00:25.491Z,44.70
2023-01-26T00:03:06.163Z,44.80
2023-01-26T00:05:41.767Z,44.70
2023-01-26T00:08:11.588Z,44.70
2023-01-26T00:10:44.377Z,44.20
2023-01-26T00:13:17.106Z,43.70
2023-01-26T00:15:46.178Z,44.10
2023-01-26T00:18:22.570Z,44.70
2023-01-26T00:20:59.488Z,44.90
2023-01-26T00:23:33.130Z,44.70
2023-01-26T00:26:17.234Z,44.50
2023-01-26T00:28:55.715Z,44.00
2023-01-26T00:31:29.162Z,43.60
2023-01-26T00:34:05.632Z,43.10
2023-01-26T00:36:48.919Z,42.50
2023-01-26T00:39:19.002Z,43.10
2023-01-26T00:42:09.911Z,43.30
2023-01-26T00:44:39.998Z,43.30
2023-01-26T00:47:11.226Z,43.00
2023-01-26T00:49:41.599Z,42.50
2023-01-26T00:52:10.561Z,42.20
2023-01-26T00:54:39.392Z,42.40
2023-01-26T00:57:10.254Z,42.40
2023-01-26T00:59:39.115Z,42.30
2023-01-26T01:02:10.207Z,41.90
2023-01-26T01:04:40.497Z,41.80
2023-01-26T01:07:09.738Z,41.80
2023-01-26T01:09:38.687Z,41.90
2023-01-26T01:12:08.232Z,41.70
2023-01-26T01:14:37.073Z,41.20
2023-01-26T01:17:06.061Z,41.40
2023-01-26T01:19:35.148Z,41.80
2023-01-26T01:22:06.564Z,41.80
2023-01-26T01:24:36.008Z,41.70
2023-01-26T01:27:05.160Z,41.60
2023-01-26T01:29:34.180Z,41.50
2023-01-26T01:32:03.020Z,41.00
2023-01-26T01:34:32.371Z,40.90
2023-01-26T01:37:01.227Z,41.10
2023-01-26T01:39:31.745Z,41.20
2023-01-26T01:42:00.414Z,41.30
2023-01-26T01:44:29.183Z,41.50
2023-01-26T01:47:02.103Z,41.40
2023-01-26T01:49:38.527Z,41.30
2023-01-26T01:52:12.374Z,41.40
2023-01-26T01:54:49.095Z,41.80
2023-01-26T01:57:28.647Z,41.00
2023-01-26T02:00:06.572Z,41.10
2023-01-26T02:02:35.857Z,41.30
2023-01-26T02:05:14.572Z,41.40
2023-01-26T02:07:43.370Z,42.10
2023-01-26T02:10:20.644Z,42.30
2023-01-26T02:12:53.220Z,42.60
2023-01-26T02:15:21.902Z,42.50
2023-01-26T02:17:53.538Z,42.70
2023-01-26T02:20:33.928Z,42.80
2023-01-26T02:23:13.230Z,43.20
2023-01-26T02:25:59.371Z,43.40
2023-01-26T02:28:29.701Z,44.30
2023-01-26T02:30:59.241Z,44.70
2023-01-26T02:33:32.111Z,44.90
2023-01-26T02:36:04.768Z,45.70
2023-01-26T02:38:43.802Z,44.70
2023-01-26T02:41:38.447Z,44.30
2023-01-26T02:44:10.903Z,44.00
2023-01-26T02:46:39.668Z,43.00
2023-01-26T02:49:25.878Z,43.20
2023-01-26T02:51:54.746Z,43.90
2023-01-26T02:54:40.067Z,42.80
2023-01-26T02:57:10.333Z,42.50
2023-01-26T02:59:39.355Z,42.30
2023-01-26T03:02:08.763Z,41.40
2023-01-26T03:04:37.554Z,41.20
2023-01-26T03:07:06.450Z,41.10
2023-01-26T03:09:35.196Z,41.40
2023-01-26T03:12:04.813Z,41.10
2023-01-26T03:14:35.042Z,40.60
2023-01-26T03:17:03.892Z,41.60
2023-01-26T03:19:49.725Z,41.10
2023-01-26T03:22:35.818Z,41.10
2023-01-26T03:25:22.032Z,41.20
2023-01-26T03:27:51.552Z,41.10
2023-01-26T03:30:22.027Z,41.10
2023-01-26T03:32:50.927Z,40.80
2023-01-26T03:35:22.738Z,41.00
2023-01-26T03:37:55.950Z,40.90
2023-01-26T03:40:42.047Z,40.60
2023-01-26T03:43:28.596Z,40.30
2023-01-26T03:46:17.248Z,40.20
2023-01-26T03:49:03.505Z,39.90
2023-01-26T03:51:49.545Z,40.20
2023-01-26T03:54:35.967Z,40.00
2023-01-26T03:57:05.050Z,40.00
2023-01-26T03:59:39.674Z,39.70
2023-01-26T04:02:29.797Z,39.70
2023-01-26T04:05:16.639Z,39.70
2023-01-26T04:08:02.737Z,39.70
2023-01-26T04:10:33.980Z,39.60
2023-01-26T04:13:20.503Z,39.90
2023-01-26T04:16:07.566Z,39.80
2023-01-26T04:18:54.872Z,39.50
2023-01-26T04:21:30.445Z,39.70
2023-01-26T04:24:00.244Z,39.80
2023-01-26T04:26:37.021Z,40.00
2023-01-26T04:29:08.666Z,39.80
2023-01-26T04:31:37.551Z,40.00
2023-01-26T04:34:15.096Z,39.60
2023-01-26T04:36:44.606Z,39.40
2023-01-26T04:39:13.500Z,39.70
2023-01-26T04:41:42.609Z,40.10
2023-01-26T04:44:11.398Z,41.00
2023-01-26T04:46:40.138Z,40.40
2023-01-26T04:49:10.802Z,40.40
2023-01-26T04:51:39.450Z,40.10
2023-01-26T04:54:08.350Z,40.00
2023-01-26T04:56:38.071Z,40.00
2023-01-26T04:59:09.108Z,40.20
2023-01-26T05:01:38.159Z,40.60
2023-01-26T05:04:09.419Z,40.80
2023-01-26T05:06:38.406Z,41.00
2023-01-26T05:09:07.676Z,41.10
2023-01-26T05:11:39.378Z,41.30
2023-01-26T05:14:08.210Z,40.90
2023-01-26T05:16:36.969Z,40.90
2023-01-26T05:19:05.851Z,41.10
2023-01-26T05:21:35.847Z,40.70
2023-01-26T05:24:04.618Z,40.40
2023-01-26T05:26:33.370Z,40.00
2023-01-26T05:29:02.073Z,40.00
2023-01-26T05:31:30.848Z,39.80
2023-01-26T05:33:59.696Z,39.50
2023-01-26T05:36:28.463Z,39.20
2023-01-26T05:38:59.147Z,38.90
2023-01-26T05:41:28.127Z,38.60
2023-01-26T05:43:56.824Z,38.60
2023-01-26T05:46:25.534Z,38.50
2023-01-26T05:48:55.000Z,38.40
2023-01-26T05:51:23.565Z,38.40
2023-01-26T05:53:52.219Z,38.40
2023-01-26T05:56:22.344Z,38.40
2023-01-26T05:58:50.954Z,38.30
2023-01-26T06:01:19.659Z,38.10
2023-01-26T06:03:48.355Z,38.10
2023-01-26T06:06:17.233Z,37.80
2023-01-26T06:08:45.910Z,38.00
2023-01-26T06:11:14.536Z,38.30
2023-01-26T06:13:44.644Z,38.60
2023-01-26T06:16:13.350Z,38.50
2023-01-26T06:18:42.046Z,38.70
2023-01-26T06:21:11.002Z,38.70
2023-01-26T06:23:39.692Z,38.20
2023-01-26T06:26:10.814Z,38.20
2023-01-26T06:28:39.652Z,38.20
2023-01-26T06:31:10.824Z,38.30
2023-01-26T06:33:40.236Z,38.20
2023-01-26T06:36:12.367Z,38.00
2023-01-26T06:38:47.582Z,38.10
2023-01-26T06:41:17.410Z,38.50
2023-01-26T06:43:49.131Z,38.50
2023-01-26T06:46:20.033Z,38.40
2023-01-26T06:48:48.790Z,38.20
2023-01-26T06:51:57.818Z,37.60
2023-01-26T06:54:26.538Z,37.80
2023-01-26T06:56:55.118Z,37.90
2023-01-26T06:59:23.873Z,38.10
2023-01-26T07:01:54.224Z,38.20
2023-01-26T07:04:27.460Z,38.20
2023-01-26T07:06:56.378Z,38.20
2023-01-26T07:09:25.304Z,38.10
2023-01-26T07:11:53.926Z,38.50
2023-01-26T07:14:22.531Z,39.80
2023-01-26T07:16:51.271Z,39.70
2023-01-26T07:19:21.940Z,40.10
2023-01-26T07:21:50.669Z,40.40
2023-01-26T07:24:21.983Z,40.20
2023-01-26T07:26:50.783Z,40.30
2023-01-26T07:29:19.778Z,40.40
2023-01-26T07:31:49.041Z,40.70
2023-01-26T07:34:18.161Z,40.50
2023-01-26T07:36:48.207Z,40.30
2023-01-26T07:39:17.088Z,40.60
2023-01-26T07:41:45.744Z,40.50
2023-01-26T07:44:14.733Z,40.60
2023-01-26T07:46:45.589Z,40.60
2023-01-26T07:49:14.839Z,40.90
2023-01-26T07:51:43.559Z,41.10
2023-01-26T07:54:14.081Z,40.70
2023-01-26T07:56:44.301Z,40.60
2023-01-26T07:59:13.403Z,40.40
2023-01-26T08:01:42.444Z,40.20
2023-01-26T08:04:11.870Z,39.90
2023-01-26T08:06:40.327Z,39.50
2023-01-26T08:09:09.176Z,39.70
2023-01-26T08:11:39.115Z,39.90
2023-01-26T08:14:07.610Z,39.50
2023-01-26T08:16:36.312Z,40.00
2023-01-26T08:19:05.138Z,39.80
2023-01-26T08:21:33.726Z,39.60
2023-01-26T08:24:03.572Z,39.50
2023-01-26T08:26:32.115Z,39.40
2023-01-26T08:29:02.340Z,39.10
2023-01-26T08:31:33.596Z,38.70
2023-01-26T08:34:02.631Z,38.90
2023-01-26T08:36:31.850Z,39.00
2023-01-26T08:39:02.952Z,38.70
2023-01-26T08:41:33.267Z,38.10
2023-01-26T08:44:03.811Z,37.50
2023-01-26T08:46:32.404Z,36.50
2023-01-26T08:49:00.891Z,36.00
2023-01-26T08:51:29.397Z,35.70
2023-01-26T08:53:58.019Z,35.50
2023-01-26T08:56:26.594Z,35.10
2023-01-26T08:58:55.076Z,34.30
2023-01-26T09:01:25.250Z,33.70
2023-01-26T09:03:55.932Z,33.90
2023-01-26T09:06:25.262Z,33.40
2023-01-26T09:08:53.724Z,33.40
2023-01-26T09:11:22.194Z,32.60
2023-01-26T09:13:56.379Z,32.40
2023-01-26T09:16:26.688Z,32.20
2023-01-26T09:18:55.523Z,32.80
2023-01-26T09:21:25.089Z,32.90
2023-01-26T09:23:53.748Z,32.40
2023-01-26T09:26:22.238Z,32.50
2023-01-26T09:28:52.759Z,32.80
2023-01-26T09:31:21.298Z,32.60
2023-01-26T09:33:52.180Z,32.50
2023-01-26T09:36:21.331Z,32.90
2023-01-26T09:38:51.122Z,32.60
2023-01-26T09:41:39.758Z,32.90
2023-01-26T09:44:12.142Z,32.90
2023-01-26T09:46:58.207Z,32.90
2023-01-26T09:49:44.933Z,32.50
2023-01-26T09:52:23.892Z,32.60
2023-01-26T09:54:54.752Z,32.90
2023-01-26T09:57:33.783Z,33.20
2023-01-26T10:00:09.659Z,33.50
2023-01-26T10:02:54.496Z,33.00
2023-01-26T10:05:38.242Z,33.00
2023-01-26T10:08:13.802Z,33.20
2023-01-26T10:10:49.323Z,33.10
2023-01-26T10:13:19.884Z,33.80
2023-01-26T10:15:54.137Z,34.40
2023-01-26T10:18:31.007Z,34.20
2023-01-26T10:21:05.621Z,34.30
2023-01-26T10:23:36.659Z,34.20
2023-01-26T10:26:14.976Z,34.20
2023-01-26T10:28:46.051Z,33.90
2023-01-26T10:31:19.771Z,33.90
2023-01-26T10:33:54.267Z,33.90
2023-01-26T10:36:24.910Z,34.30
2023-01-26T10:38:54.216Z,34.80
2023-01-26T10:41:29.389Z,35.00
2023-01-26T10:44:00.632Z,34.70
2023-01-26T10:46:33.847Z,34.80
2023-01-26T10:49:05.569Z,35.20
2023-01-26T10:51:37.637Z,35.30
2023-01-26T10:54:24.849Z,35.30
2023-01-26T10:56:56.728Z,35.30
2023-01-26T10:59:32.269Z,35.10
2023-01-26T11:02:04.319Z,34.80
2023-01-26T11:04:33.002Z,35.10
2023-01-26T11:07:29.292Z,35.60
2023-01-26T11:09:58.032Z,35.90
2023-01-26T11:12:27.644Z,35.60
2023-01-26T11:15:06.224Z,35.40
2023-01-26T11:17:42.117Z,35.40
2023-01-26T11:20:48.048Z,35.50
2023-01-26T11:23:35.187Z,35.50
2023-01-26T11:26:53.536Z,36.10
2023-01-26T11:29:54.493Z,36.40
2023-01-26T11:32:36.872Z,36.20
2023-01-26T11:35:20.032Z,36.40
2023-01-26T11:37:54.019Z,36.50
2023-01-26T11:40:39.318Z,36.50
2023-01-26T11:43:34.175Z,36.80
2023-01-26T11:46:42.421Z,37.00
2023-01-26T11:49:33.542Z,36.80
2023-01-26T11:52:14.474Z,36.70
2023-01-26T11:55:15.300Z,37.00
2023-01-26T11:58:02.981Z,37.60
2023-01-26T12:00:41.995Z,37.80
2023-01-26T12:03:25.885Z,38.10
2023-01-26T12:05:59.132Z,38.00
2023-01-26T12:08:38.627Z,38.20
2023-01-26T12:11:24.145Z,38.40
2023-01-26T12:14:22.532Z,38.90
2023-01-26T12:17:19.934Z,39.30
2023-01-26T12:20:04.496Z,39.20
2023-01-26T12:22:38.255Z,39.40
2023-01-26T12:25:24.832Z,39.50
2023-01-26T12:28:04.169Z,38.90
2023-01-26T12:30:42.956Z,39.20
2023-01-26T12:33:12.922Z,39.10
2023-01-26T12:36:18.285Z,39.40
2023-01-26T12:39:13.112Z,39.20
2023-01-26T12:42:05.106Z,39.30
2023-01-26T12:44:42.447Z,39.20
2023-01-26T12:47:26.705Z,39.00
2023-01-26T12:50:03.886Z,38.90
2023-01-26T12:52:42.224Z,38.90
2023-01-26T12:55:21.783Z,38.60
2023-01-26T12:57:55.912Z,38.10
2023-01-26T13:00:29.856Z,37.90
2023-01-26T13:03:06.014Z,38.20
2023-01-26T13:05:37.197Z,38.60
2023-01-26T13:08:53.774Z,37.50
2023-01-26T13:11:46.974Z,37.90
2023-01-26T13:15:01.047Z,37.70
2023-01-26T13:17:55.044Z,37.70
2023-01-26T13:20:51.466Z,37.50
2023-01-26T13:23:53.239Z,37.00
2023-01-26T13:26:53.535Z,36.60
2023-01-26T13:29:35.630Z,36.30
2023-01-26T13:33:06.430Z,35.40
2023-01-26T13:35:38.240Z,35.90
2023-01-26T13:38:19.252Z,35.60
2023-01-26T13:40:50.787Z,35.90
2023-01-26T13:43:36.614Z,36.30
2023-01-26T13:46:13.956Z,36.30
2023-01-26T13:48:47.326Z,36.50
2023-01-26T13:51:21.503Z,36.80
2023-01-26T13:53:58.666Z,36.80
2023-01-26T13:56:34.448Z,36.40
2023-01-26T13:59:10.890Z,36.50
2023-01-26T14:01:45.937Z,36.30
2023-01-26T14:04:20.834Z,36.50
2023-01-26T14:06:57.710Z,36.20
2023-01-26T14:09:29.227Z,36.50
2023-01-26T14:12:02.924Z,37.10
2023-01-26T14:14:36.330Z,36.50
2023-01-26T14:17:09.997Z,36.80
2023-01-26T14:19:42.908Z,37.20
2023-01-26T14:22:18.668Z,37.60
2023-01-26T14:24:51.207Z,37.70
2023-01-26T14:27:42.572Z,38.10
2023-01-26T14:30:27.211Z,38.00
2023-01-26T14:33:04.842Z,37.90
2023-01-26T14:35:34.260Z,37.70
2023-01-26T14:38:19.961Z,37.70
2023-01-26T14:40:50.837Z,38.30
2023-01-26T14:43:20.072Z,37.80
2023-01-26T14:45:56.747Z,37.50
2023-01-26T14:48:37.915Z,38.00
2023-01-26T14:51:12.128Z,38.10
2023-01-26T14:53:42.163Z,38.60
2023-01-26T14:56:20.895Z,38.80
2023-01-26T14:58:55.758Z,38.60
2023-01-26T15:01:28.110Z,39.10
2023-01-26T15:04:03.922Z,39.40
2023-01-26T15:06:34.333Z,39.50
2023-01-26T15:09:20.800Z,39.60
2023-01-26T15:12:12.914Z,39.10
2023-01-26T15:14:51.651Z,38.90
2023-01-26T15:17:37.196Z,38.40
2023-01-26T15:20:13.300Z,38.50
2023-01-26T15:22:43.188Z,37.80
2023-01-26T15:25:26.103Z,38.30
2023-01-26T15:27:58.959Z,38.20
2023-01-26T15:30:32.592Z,38.50
2023-01-26T15:33:01.617Z,39.00
2023-01-26T15:35:32.591Z,38.70
2023-01-26T15:38:04.286Z,39.00
2023-01-26T15:40:34.530Z,39.10
2023-01-26T15:43:15.735Z,38.80
2023-01-26T15:45:52.556Z,38.90
2023-01-26T15:48:22.271Z,38.90
2023-01-26T15:50:51.764Z,38.00
2023-01-26T15:53:23.548Z,38.30
2023-01-26T15:55:56.153Z,38.00
2023-01-26T15:58:25.792Z,37.90
2023-01-26T16:00:54.718Z,37.80
2023-01-26T16:03:24.012Z,37.50
2023-01-26T16:05:52.592Z,37.50
2023-01-26T16:08:21.905Z,37.60
2023-01-26T16:10:52.398Z,37.60
2023-01-26T16:13:21.162Z,37.20
2023-01-26T16:15:52.766Z,37.20
2023-01-26T16:18:22.399Z,37.10
2023-01-26T16:20:52.137Z,37.30
2023-01-26T16:23:23.994Z,37.30
2023-01-26T16:25:54.659Z,37.80
2023-01-26T16:28:24.014Z,38.70
2023-01-26T16:30:53.168Z,39.60
2023-01-26T16:33:22.818Z,39.00
2023-01-26T16:35:51.455Z,38.90
2023-01-26T16:38:20.569Z,39.20
2023-01-26T16:40:53.056Z,38.80
2023-01-26T16:43:27.678Z,39.00
2023-01-26T16:45:58.003Z,39.40
2023-01-26T16:48:29.012Z,39.20
2023-01-26T16:50:57.907Z,39.30
2023-01-26T16:53:31.239Z,39.30
2023-01-26T16:56:00.945Z,39.10
2023-01-26T16:58:33.346Z,38.50
2023-01-26T17:01:02.293Z,38.80
2023-01-26T17:03:31.149Z,38.80
2023-01-26T17:06:00.447Z,39.40
2023-01-26T17:08:29.549Z,39.40
2023-01-26T17:11:02.328Z,39.30
2023-01-26T17:13:34.438Z,39.20
2023-01-26T17:16:03.436Z,39.10
2023-01-26T17:18:33.549Z,39.30
2023-01-26T17:21:04.673Z,39.30
2023-01-26T17:23:33.263Z,39.80
2023-01-26T17:26:02.073Z,40.30
2023-01-26T17:28:32.086Z,39.90
2023-01-26T17:31:01.552Z,39.80
2023-01-26T17:33:31.055Z,39.60
2023-01-26T17:36:03.440Z,39.30
2023-01-26T17:38:38.986Z,38.90
2023-01-26T17:41:08.500Z,38.70
2023-01-26T17:43:38.473Z,38.80
2023-01-26T17:46:09.846Z,39.20
2023-01-26T17:48:38.925Z,39.90
2023-01-26T17:51:08.873Z,39.40
2023-01-26T17:53:42.149Z,39.20
2023-01-26T17:56:12.576Z,39.60
2023-01-26T17:58:42.880Z,39.70
2023-01-26T18:01:12.480Z,39.90
2023-01-26T18:03:43.557Z,40.00
2023-01-26T18:06:12.856Z,39.60
2023-01-26T18:08:42.270Z,39.70
2023-01-26T18:11:13.187Z,39.70
2023-01-26T18:13:49.652Z,39.90
2023-01-26T18:16:21.493Z,39.90
2023-01-26T18:18:50.196Z,39.90
2023-01-26T18:21:22.701Z,40.10
2023-01-26T18:23:53.941Z,40.00
2023-01-26T18:26:25.137Z,39.90
2023-01-26T18:28:55.363Z,39.80
2023-01-26T18:31:27.188Z,39.90
2023-01-26T18:33:57.544Z,39.90
2023-01-26T18:36:26.994Z,39.90
2023-01-26T18:38:58.045Z,39.80
2023-01-26T18:41:28.627Z,39.20
2023-01-26T18:43:59.268Z,39.20
2023-01-26T18:46:30.967Z,39.50
2023-01-26T18:49:01.046Z,39.60
2023-01-26T18:51:31.999Z,40.10
2023-01-26T18:54:01.028Z,40.40
2023-01-26T18:56:29.595Z,40.80
2023-01-26T18:58:59.558Z,40.50
2023-01-26T19:01:28.447Z,40.10
2023-01-26T19:03:58.654Z,39.90
2023-01-26T19:06:30.927Z,40.30
2023-01-26T19:09:03.518Z,40.30
2023-01-26T19:11:35.359Z,40.30
2023-01-26T19:14:08.000Z,40.30
2023-01-26T19:16:37.031Z,40.20
2023-01-26T19:19:06.192Z,40.30
2023-01-26T19:21:34.829Z,40.40
2023-01-26T19:24:06.177Z,40.80
2023-01-26T19:26:35.497Z,41.40
2023-01-26T19:29:06.526Z,41.50
2023-01-26T19:31:37.100Z,41.20
2023-01-26T19:34:07.793Z,41.10
2023-01-26T19:36:37.919Z,40.60
2023-01-26T19:39:07.927Z,40.90
2023-01-26T19:41:38.853Z,41.20
2023-01-26T19:44:09.306Z,41.20
2023-01-26T19:46:37.788Z,41.00
2023-01-26T19:49:08.724Z,40.80
2023-01-26T19:51:37.496Z,40.60
2023-01-26T19:54:06.287Z,41.00
2023-01-26T19:56:36.927Z,40.80
2023-01-26T19:59:10.280Z,40.70
2023-01-26T20:01:39.110Z,40.90
2023-01-26T20:04:12.565Z,40.10
2023-01-26T20:06:41.413Z,40.20
2023-01-26T20:09:10.471Z,40.40
2023-01-26T20:11:39.184Z,40.50
2023-01-26T20:14:12.599Z,40.00
2023-01-26T20:16:41.673Z,39.90
2023-01-26T20:19:11.711Z,39.80
2023-01-26T20:21:40.469Z,39.00
2023-01-26T20:24:13.322Z,39.30
2023-01-26T20:26:43.462Z,39.80
2023-01-26T20:29:16.529Z,39.70
2023-01-26T20:31:45.674Z,39.50
2023-01-26T20:34:15.571Z,39.00
2023-01-26T20:36:44.632Z,39.00
2023-01-26T20:39:17.680Z,38.90
2023-01-26T20:41:46.253Z,38.70
2023-01-26T20:44:16.374Z,38.80
2023-01-26T20:46:45.903Z,38.10
2023-01-26T20:49:18.774Z,37.80
2023-01-26T20:51:47.894Z,37.00
2023-01-26T20:54:19.185Z,37.00
2023-01-26T20:56:49.931Z,37.50
2023-01-26T20:59:20.776Z,37.80
2023-01-26T21:01:49.324Z,37.90
2023-01-26T21:04:18.167Z,37.70
2023-01-26T21:06:46.785Z,37.80
2023-01-26T21:09:15.400Z,38.00
2023-01-26T21:11:44.026Z,37.80
2023-01-26T21:14:14.371Z,37.80
2023-01-26T21:16:44.533Z,37.70
2023-01-26T21:19:13.360Z,37.30
2023-01-26T21:21:41.960Z,37.80
2023-01-26T21:24:11.248Z,37.90
2023-01-26T21:26:40.083Z,37.90
2023-01-26T21:29:11.852Z,37.90
2023-01-26T21:31:40.413Z,37.80
2023-01-26T21:34:11.190Z,37.60
2023-01-26T21:36:39.740Z,37.50
2023-01-26T21:39:12.383Z,37.50
2023-01-26T21:41:59.372Z,37.40
2023-01-26T21:44:29.985Z,37.20
2023-01-26T21:47:01.040Z,36.80
2023-01-26T21:49:31.289Z,36.90
2023-01-26T21:52:17.263Z,36.80
2023-01-26T21:54:46.095Z,37.60
2023-01-26T21:57:32.069Z,36.90
2023-01-26T22:00:00.647Z,36.80
2023-01-26T22:02:29.223Z,36.70
2023-01-26T22:04:59.161Z,37.30
2023-01-26T22:07:29.849Z,37.90
2023-01-26T22:09:58.397Z,38.40
2023-01-26T22:12:27.044Z,38.40
2023-01-26T22:14:55.680Z,38.50
2023-01-26T22:17:42.524Z,38.40
2023-01-26T22:20:31.072Z,38.30
2023-01-26T22:22:59.952Z,38.30
2023-01-26T22:25:28.515Z,38.20
2023-01-26T22:27:57.140Z,38.20
2023-01-26T22:30:51.104Z,38.40
2023-01-26T22:33:19.619Z,38.10
2023-01-26T22:35:49.695Z,38.50
2023-01-26T22:38:18.382Z,38.30
2023-01-26T22:40:46.987Z,38.50
2023-01-26T22:43:15.540Z,38.60
2023-01-26T22:45:44.657Z,38.70
2023-01-26T22:48:13.212Z,39.60
2023-01-26T22:50:42.119Z,39.90
2023-01-26T22:53:12.766Z,40.20
2023-01-26T22:55:43.082Z,40.00
2023-01-26T22:58:12.551Z,39.70
2023-01-26T23:00:41.304Z,39.70
2023-01-26T23:03:10.649Z,39.30
2023-01-26T23:05:39.794Z,39.30
2023-01-26T23:08:08.840Z,39.30
2023-01-26T23:10:38.997Z,39.20
2023-01-26T23:13:08.305Z,39.00
2023-01-26T23:15:39.319Z,38.70
2023-01-26T23:18:09.454Z,38.50
2023-01-26T23:20:38.228Z,39.10
2023-01-26T23:23:07.001Z,38.50
2023-01-26T23:25:53.726Z,38.10
2023-01-26T23:28:25.837Z,37.60
2023-01-26T23:30:56.873Z,38.30
2023-01-26T23:33:27.988Z,38.80
2023-01-26T23:35:56.986Z,39.00
2023-01-26T23:38:28.490Z,39.60
2023-01-26T23:41:00.678Z,40.00
2023-01-26T23:43:30.208Z,40.20
2023-01-26T23:45:59.481Z,40.00
2023-01-26T23:48:28.752Z,40.10
2023-01-26T23:50:58.576Z,40.20
2023-01-26T23:53:27.867Z,39.80
2023-01-26T23:55:59.929Z,39.70
2023-01-26T23:58:29.072Z,39.50
